Terminal Aerodrome Forecast
Issued by NWS

Home | Current Version | Previous Version | Text Only | Print | Product List | Glossary On
Versions: 1 2 3 4 5 6 7 8 9 10 11 12 13 14 15 16 17 18 19 20 21 22 23 24
080
FTUS43 KIND 240810 AAA
TAFLAF
TAF AMD
KLAF 240810Z 2408/2506 30006KT P6SM SCT008 OVC015
      TEMPO 2408/2410 4SM BR OVC008
     FM241400 29005KT P6SM VCSH OVC015
     FM241800 28007KT P6SM OVC025
     FM242100 29007KT P6SM BKN035
     FM250300 VRB03KT P6SM SCT150
      AMD LTD TO CLD VIS AND WIND TIL 241400=

USA.gov is the U.S. government's official web portal to all federal, state and local government web resources and services.